Freedom, Missouri
Current Conditions -  °F | °C
As of 6:53 PM on Wednesday 26 Nov 2014 (Local Time) from KJEF Reporting Station
Overcast Overcast  
Wind Chill: 28°   Ceiling: 1600
Heat Index: 37°   Visibility: 10mi
Dew Point: 32°   Wind: 14mph
Humidity: 82%   Direction: 300°WNW
Pressure: 30.11"   Gusts: 29mph
Location:  38.6366°N, 91.76°W
Report Text: KJEF 270053Z 30012G25KT 10SM OVC016 03/00 A3011 RMK AO2 RAB10E29UPB29E32 SLP190 P0000 T00280000 $
Loading
Personal Weather Stations






























Interactive Weather Map New forecast layout! Learn more

10-Day Weather Forecast

Advertisements
Track Severe Weather on mobile